Time;durP1;ratioP1;P1;durP2;ratioP2;P2;SDS_P1;SDS_P2;PMS_P1;PMS_P2;Temp;Humidity;BMP_temperature;BMP_pressure;BME280_temperature;BME280_humidity;BME280_pressure;Samples;Min_cycle;Max_cycle;Signal;HPM_P1;HPM_P2
2023/04/07 00:00:25;;;;;;;7.47;6.63;;;;;;;;;;5104898;28;20257;-79
2023/04/07 00:02:52;;;;;;;9.07;7.33;;;;;;;;;;5094256;28;20215;-79
2023/04/07 00:05:19;;;;;;;8.07;7.30;;;;;;;;;;5095102;28;20670;-80
2023/04/07 00:07:46;;;;;;;7.40;6.40;;;;;;;;;;5098423;28;20593;-80
2023/04/07 00:10:14;;;;;;;7.20;6.37;;;;;;;;;;5114504;28;20264;-80
2023/04/07 00:12:41;;;;;;;9.10;7.03;;;;;;;;;;5114614;28;20248;-81
2023/04/07 00:15:08;;;;;;;7.00;6.23;;;;;;;;;;5103057;28;20204;-80
2023/04/07 00:17:35;;;;;;;7.70;7.00;;;;;;;;;;5107657;28;20713;-79
2023/04/07 00:20:02;;;;;;;8.73;6.97;;;;;;;;;;5105250;28;20203;-80
2023/04/07 00:22:29;;;;;;;8.10;7.40;;;;;;;;;;5100379;28;20222;-80
2023/04/07 00:24:55;;;;;;;8.33;6.87;;;;;;;;;;5112542;28;20667;-80
2023/04/07 00:27:24;;;;;;;7.73;6.90;;;;;;;;;;5094677;28;20200;-80
2023/04/07 00:29:50;;;;;;;7.67;6.97;;;;;;;;;;5105052;28;20210;-80
2023/04/07 00:32:17;;;;;;;7.03;6.33;;;;;;;;;;5099375;28;20203;-80
2023/04/07 00:34:44;;;;;;;8.30;7.50;;;;;;;;;;5100144;28;20204;-81
2023/04/07 00:37:11;;;;;;;8.40;7.60;;;;;;;;;;5106287;28;20234;-80
2023/04/07 00:39:38;;;;;;;8.27;6.57;;;;;;;;;;5105388;28;20772;-80
2023/04/07 00:42:05;;;;;;;7.83;6.57;;;;;;;;;;5112187;28;20678;-79
2023/04/07 00:44:33;;;;;;;6.80;5.60;;;;;;;;;;5099589;28;20228;-80
2023/04/07 00:47:00;;;;;;;6.67;6.07;;;;;;;;;;5112251;28;20682;-81
2023/04/07 00:49:28;;;;;;;7.63;6.90;;;;;;;;;;5099492;28;20212;-80
2023/04/07 00:51:55;;;;;;;8.10;6.30;;;;;;;;;;5105865;28;20279;-80
2023/04/07 00:54:23;;;;;;;7.73;6.87;;;;;;;;;;5106083;28;20203;-81
2023/04/07 00:56:50;;;;;;;7.87;7.07;;;;;;;;;;5091647;28;20209;-80
2023/04/07 00:59:17;;;;;;;7.90;7.10;;;;;;;;;;5091926;28;20797;-80
2023/04/07 01:01:49;;;;;;;7.97;6.73;;;;;;;;;;5092079;28;20284;-80
2023/04/07 01:04:32;;;;;;;8.47;6.90;;;;;;;;;;5105735;28;20238;-81
2023/04/07 01:07:05;;;;;;;9.20;6.87;;;;;;;;;;5102246;28;20257;-80
2023/04/07 01:09:37;;;;;;;8.40;7.60;;;;;;;;;;5098732;28;20230;-82
2023/04/07 01:12:08;;;;;;;8.20;7.40;;;;;;;;;;5111985;28;20264;-80
2023/04/07 01:14:40;;;;;;;7.37;6.43;;;;;;;;;;5111958;28;20777;-80
2023/04/07 01:17:10;;;;;;;8.60;7.70;;;;;;;;;;5098477;28;20250;-81
2023/04/07 01:19:38;;;;;;;13.77;7.33;;;;;;;;;;5112033;28;20266;-80
2023/04/07 01:22:08;;;;;;;8.77;7.20;;;;;;;;;;5098043;28;20716;-80
2023/04/07 01:24:48;;;;;;;9.37;7.00;;;;;;;;;;5112026;28;20203;-80
2023/04/07 01:27:21;;;;;;;6.87;6.17;;;;;;;;;;5094962;28;20215;-81
2023/04/07 01:29:50;;;;;;;8.07;6.97;;;;;;;;;;5102749;28;20575;-80
2023/04/07 01:32:19;;;;;;;8.47;7.63;;;;;;;;;;5111934;28;20210;-80
2023/04/07 01:34:48;;;;;;;6.60;5.93;;;;;;;;;;5099861;28;20208;-80
2023/04/07 01:37:15;;;;;;;9.13;6.97;;;;;;;;;;5109728;28;20762;-82
2023/04/07 01:39:42;;;;;;;7.27;6.63;;;;;;;;;;5111849;28;20227;-80
2023/04/07 01:42:09;;;;;;;9.43;7.50;;;;;;;;;;5098090;28;20253;-81
2023/04/07 01:44:36;;;;;;;7.07;6.37;;;;;;;;;;5111517;28;20203;-80
2023/04/07 01:47:05;;;;;;;10.03;6.87;;;;;;;;;;5091144;28;20666;-80
2023/04/07 01:49:32;;;;;;;8.73;7.70;;;;;;;;;;5105141;28;20250;-80
2023/04/07 01:52:00;;;;;;;9.43;7.43;;;;;;;;;;5104016;28;20276;-80
2023/04/07 01:54:29;;;;;;;7.27;6.63;;;;;;;;;;5092506;28;20211;-80
2023/04/07 01:56:56;;;;;;;10.33;6.50;;;;;;;;;;5111668;28;20203;-80
2023/04/07 01:59:23;;;;;;;7.63;6.23;;;;;;;;;;5109798;28;20226;-80
2023/04/07 02:01:50;;;;;;;8.90;7.27;;;;;;;;;;5091252;28;20265;-80
2023/04/07 02:04:22;;;;;;;8.17;7.37;;;;;;;;;;5104771;28;20212;-81
2023/04/07 02:06:52;;;;;;;9.17;7.27;;;;;;;;;;5091327;28;20590;-80
2023/04/07 02:09:20;;;;;;;8.30;7.50;;;;;;;;;;5094450;28;20254;-80
2023/04/07 02:11:48;;;;;;;7.37;6.57;;;;;;;;;;5110757;28;20203;-81
2023/04/07 02:14:16;;;;;;;8.90;7.30;;;;;;;;;;5094277;28;20211;-80
2023/04/07 02:16:43;;;;;;;7.20;6.50;;;;;;;;;;5091480;28;20219;-81
2023/04/07 02:19:10;;;;;;;7.83;6.33;;;;;;;;;;5095215;28;20280;-81
2023/04/07 02:21:40;;;;;;;7.90;7.10;;;;;;;;;;5100608;28;20219;-81
2023/04/07 02:24:07;;;;;;;8.03;7.30;;;;;;;;;;5104995;28;20438;-81
2023/04/07 02:26:34;;;;;;;6.77;6.10;;;;;;;;;;5090961;28;20212;-81
2023/04/07 02:29:01;;;;;;;7.50;6.80;;;;;;;;;;5110193;28;20204;-81
2023/04/07 02:31:28;;;;;;;8.13;6.83;;;;;;;;;;5111796;28;20617;-80
2023/04/07 02:33:55;;;;;;;7.43;6.77;;;;;;;;;;5105730;28;20200;-81
2023/04/07 02:36:22;;;;;;;8.10;7.30;;;;;;;;;;5103996;28;20266;-81
2023/04/07 02:38:50;;;;;;;8.07;6.50;;;;;;;;;;5111145;28;20231;-82
2023/04/07 02:41:17;;;;;;;7.50;6.73;;;;;;;;;;5098323;28;20208;-83
2023/04/07 02:43:43;;;;;;;7.43;6.73;;;;;;;;;;5104633;28;20212;-81
2023/04/07 02:46:10;;;;;;;8.43;7.53;;;;;;;;;;5090779;28;20253;-80
2023/04/07 02:48:37;;;;;;;8.37;7.07;;;;;;;;;;5099585;28;20212;-81
2023/04/07 02:51:04;;;;;;;8.73;7.83;;;;;;;;;;5101560;28;20281;-81
2023/04/07 02:53:31;;;;;;;10.13;9.10;;;;;;;;;;5094190;28;20200;-81
2023/04/07 02:55:59;;;;;;;11.63;8.83;;;;;;;;;;5094640;28;20655;-82
2023/04/07 02:58:26;;;;;;;9.63;8.00;;;;;;;;;;5107617;28;20281;-81
2023/04/07 03:00:52;;;;;;;9.10;7.23;;;;;;;;;;5107816;28;20207;-81
2023/04/07 03:03:19;;;;;;;11.83;7.43;;;;;;;;;;5102106;28;20650;-84
2023/04/07 03:05:46;;;;;;;16.53;11.50;;;;;;;;;;5099919;28;20302;-81
2023/04/07 03:08:12;;;;;;;13.90;9.63;;;;;;;;;;5093735;28;20207;-80
2023/04/07 03:10:39;;;;;;;15.77;11.10;;;;;;;;;;5109311;28;20204;-81
2023/04/07 03:13:08;;;;;;;12.83;9.00;;;;;;;;;;5114309;28;20608;-81
2023/04/07 03:15:34;;;;;;;9.47;7.90;;;;;;;;;;5113692;28;20230;-81
2023/04/07 03:18:01;;;;;;;29.77;22.13;;;;;;;;;;5102174;28;20207;-80
2023/04/07 03:20:28;;;;;;;30.93;24.00;;;;;;;;;;5113745;28;20235;-80
2023/04/07 03:22:55;;;;;;;10.73;9.73;;;;;;;;;;5114572;28;20207;-80
2023/04/07 03:25:21;;;;;;;8.40;7.37;;;;;;;;;;5098325;28;20204;-80
2023/04/07 03:27:48;;;;;;;14.47;8.83;;;;;;;;;;5093897;28;20196;-80
2023/04/07 03:30:16;;;;;;;13.63;9.63;;;;;;;;;;5109621;28;20211;-80
2023/04/07 03:32:43;;;;;;;8.80;7.40;;;;;;;;;;5114174;28;20207;-80
2023/04/07 03:35:10;;;;;;;6.93;6.23;;;;;;;;;;5111182;28;20666;-80
2023/04/07 03:37:37;;;;;;;6.87;6.17;;;;;;;;;;5102947;28;20643;-80
2023/04/07 03:40:04;;;;;;;8.47;6.73;;;;;;;;;;5099896;28;20228;-79
2023/04/07 03:42:31;;;;;;;7.10;6.40;;;;;;;;;;5113790;28;20203;-80
2023/04/07 03:44:57;;;;;;;7.47;6.40;;;;;;;;;;5109263;28;20767;-80
2023/04/07 03:47:25;;;;;;;6.70;5.97;;;;;;;;;;5102908;28;20200;-80
2023/04/07 03:49:52;;;;;;;6.67;5.93;;;;;;;;;;5113484;28;20633;-81
2023/04/07 03:52:19;;;;;;;8.50;6.67;;;;;;;;;;5102710;28;20200;-80
2023/04/07 03:54:46;;;;;;;7.97;7.17;;;;;;;;;;5106033;28;20205;-80
2023/04/07 03:57:12;;;;;;;7.53;6.20;;;;;;;;;;5103347;28;20210;-80
2023/04/07 03:59:40;;;;;;;6.83;6.03;;;;;;;;;;5107773;28;20232;-80
2023/04/07 04:02:06;;;;;;;8.03;7.23;;;;;;;;;;5103798;28;20289;-80
2023/04/07 04:04:35;;;;;;;6.93;6.33;;;;;;;;;;5099317;28;20192;-80
2023/04/07 04:07:01;;;;;;;8.20;6.80;;;;;;;;;;5101987;28;20238;-80
2023/04/07 04:09:28;;;;;;;10.03;6.90;;;;;;;;;;5110995;28;20239;-80
2023/04/07 04:11:55;;;;;;;11.33;7.23;;;;;;;;;;5111374;28;20204;-81
2023/04/07 04:14:22;;;;;;;33.17;20.10;;;;;;;;;;5108241;28;20193;-80
2023/04/07 04:16:49;;;;;;;38.33;22.30;;;;;;;;;;5104140;28;20752;-79
2023/04/07 04:19:16;;;;;;;15.77;11.70;;;;;;;;;;5112406;28;20227;-80
2023/04/07 04:21:45;;;;;;;10.63;9.40;;;;;;;;;;5112988;28;20681;-80
2023/04/07 04:24:12;;;;;;;12.30;9.57;;;;;;;;;;5093445;28;20678;-81
2023/04/07 04:26:38;;;;;;;10.87;9.77;;;;;;;;;;5092426;28;20249;-81
2023/04/07 04:29:05;;;;;;;9.43;8.43;;;;;;;;;;5106435;28;20196;-80
2023/04/07 04:31:32;;;;;;;12.83;10.60;;;;;;;;;;5105460;28;20586;-81
2023/04/07 04:34:00;;;;;;;12.67;10.80;;;;;;;;;;5105881;28;20287;-81
2023/04/07 04:36:27;;;;;;;13.23;10.73;;;;;;;;;;5092735;28;20315;-80
2023/04/07 04:38:55;;;;;;;11.50;10.13;;;;;;;;;;5099376;28;20205;-79
2023/04/07 04:41:21;;;;;;;14.10;10.43;;;;;;;;;;5112876;28;20269;-80
2023/04/07 04:43:48;;;;;;;27.13;16.53;;;;;;;;;;5112752;28;20214;-81
2023/04/07 04:46:15;;;;;;;70.80;38.77;;;;;;;;;;5112012;28;20605;-80
2023/04/07 04:48:42;;;;;;;48.30;29.60;;;;;;;;;;5100065;28;20218;-80
2023/04/07 04:51:08;;;;;;;34.97;20.77;;;;;;;;;;5111283;28;20310;-80
2023/04/07 04:53:38;;;;;;;21.20;14.67;;;;;;;;;;5100190;28;20199;-80
2023/04/07 04:56:07;;;;;;;15.33;13.67;;;;;;;;;;5111934;28;20203;-80
2023/04/07 04:58:35;;;;;;;28.67;20.50;;;;;;;;;;5112507;28;20212;-80
2023/04/07 05:01:01;;;;;;;63.07;40.93;;;;;;;;;;5109489;28;20314;-80
2023/04/07 05:03:28;;;;;;;26.70;19.90;;;;;;;;;;5101335;28;20252;-80
2023/04/07 05:05:55;;;;;;;34.30;21.97;;;;;;;;;;5096453;28;20227;-80
2023/04/07 05:08:21;;;;;;;29.13;20.80;;;;;;;;;;5092098;28;20204;-80
2023/04/07 05:10:48;;;;;;;26.23;18.30;;;;;;;;;;5106689;28;20208;-80
2023/04/07 05:13:16;;;;;;;19.77;16.77;;;;;;;;;;5103238;28;20196;-80
2023/04/07 05:15:43;;;;;;;20.13;13.67;;;;;;;;;;5094482;28;20212;-80
2023/04/07 05:18:10;;;;;;;17.23;13.80;;;;;;;;;;5103518;28;20204;-80
2023/04/07 05:20:36;;;;;;;15.27;11.73;;;;;;;;;;5094276;28;20228;-80
2023/04/07 05:23:03;;;;;;;11.00;8.40;;;;;;;;;;5102891;28;20304;-80
2023/04/07 05:25:30;;;;;;;10.10;9.20;;;;;;;;;;5094298;28;20204;-81
2023/04/07 05:28:00;;;;;;;13.90;12.50;;;;;;;;;;5111871;28;20196;-80
2023/04/07 05:30:28;;;;;;;12.00;10.70;;;;;;;;;;5111842;28;20207;-80
2023/04/07 05:32:55;;;;;;;12.47;11.17;;;;;;;;;;5101605;28;20667;-80
2023/04/07 05:35:21;;;;;;;12.33;10.63;;;;;;;;;;5095128;28;20696;-81
2023/04/07 05:37:48;;;;;;;11.57;10.37;;;;;;;;;;5101226;28;20212;-80
2023/04/07 05:40:15;;;;;;;12.33;9.97;;;;;;;;;;5109499;28;20230;-80
2023/04/07 05:42:42;;;;;;;10.47;8.73;;;;;;;;;;5111526;28;20588;-80
2023/04/07 05:45:12;;;;;;;10.80;9.47;;;;;;;;;;5098280;28;20203;-80
2023/04/07 05:47:41;;;;;;;10.40;9.20;;;;;;;;;;5111446;28;20199;-80
2023/04/07 05:50:11;;;;;;;21.60;17.07;;;;;;;;;;5111106;28;20582;-80
2023/04/07 05:52:37;;;;;;;32.40;22.00;;;;;;;;;;5098858;28;20690;-80
2023/04/07 05:55:05;;;;;;;23.03;18.03;;;;;;;;;;5097416;28;20210;-80
2023/04/07 05:57:35;;;;;;;14.37;11.73;;;;;;;;;;5111277;28;20203;-80
2023/04/07 06:00:02;;;;;;;11.43;10.23;;;;;;;;;;5104514;28;20305;-80
2023/04/07 06:02:29;;;;;;;10.97;9.90;;;;;;;;;;5104974;28;20207;-80
2023/04/07 06:04:57;;;;;;;11.67;9.87;;;;;;;;;;5111170;28;20199;-80
2023/04/07 06:07:24;;;;;;;9.13;8.23;;;;;;;;;;5111665;28;20207;-80
2023/04/07 06:09:50;;;;;;;10.67;9.00;;;;;;;;;;5111357;28;20234;-80
2023/04/07 06:12:17;;;;;;;10.20;9.03;;;;;;;;;;5110424;28;20742;-80
2023/04/07 06:14:51;;;;;;;11.07;9.07;;;;;;;;;;5090303;28;20242;-80
2023/04/07 06:17:17;;;;;;;9.43;8.53;;;;;;;;;;5093074;28;20201;-80
2023/04/07 06:19:45;;;;;;;10.13;9.13;;;;;;;;;;5111105;28;20615;-80
2023/04/07 06:22:13;;;;;;;8.60;6.63;;;;;;;;;;5097983;28;20234;-81
2023/04/07 06:24:40;;;;;;;9.07;8.27;;;;;;;;;;5114869;28;20207;-81
2023/04/07 06:27:07;;;;;;;8.73;7.80;;;;;;;;;;5101491;28;20200;-81
2023/04/07 06:29:35;;;;;;;8.67;7.80;;;;;;;;;;5105389;28;20218;-81
2023/04/07 06:32:02;;;;;;;8.07;7.00;;;;;;;;;;5108574;28;20583;-81
2023/04/07 06:34:28;;;;;;;8.53;7.73;;;;;;;;;;5104842;28;20203;-80
2023/04/07 06:36:55;;;;;;;18.70;15.23;;;;;;;;;;5111370;28;20728;-80
2023/04/07 06:39:27;;;;;;;19.17;13.97;;;;;;;;;;5104966;28;20714;-80
2023/04/07 06:41:53;;;;;;;17.93;14.23;;;;;;;;;;5110357;28;20245;-80
2023/04/07 06:44:20;;;;;;;13.30;10.83;;;;;;;;;;5094893;28;20203;-80
2023/04/07 06:46:49;;;;;;;14.17;10.50;;;;;;;;;;5098510;28;20256;-80
2023/04/07 06:49:17;;;;;;;11.67;9.37;;;;;;;;;;5104136;28;20204;-80
2023/04/07 06:51:45;;;;;;;9.10;8.13;;;;;;;;;;5108316;28;20200;-80
2023/04/07 06:54:13;;;;;;;13.37;9.67;;;;;;;;;;5106810;28;20200;-80
2023/04/07 06:56:43;;;;;;;9.13;7.37;;;;;;;;;;5114355;28;20196;-81
2023/04/07 06:59:10;;;;;;;16.30;13.07;;;;;;;;;;5115250;28;20290;-81
2023/04/07 07:01:37;;;;;;;18.93;15.17;;;;;;;;;;5114603;28;20608;-81
2023/04/07 07:04:05;;;;;;;10.23;9.03;;;;;;;;;;5114463;28;20238;-80
2023/04/07 07:06:32;;;;;;;11.77;10.17;;;;;;;;;;5101153;28;20661;-81
2023/04/07 07:08:59;;;;;;;10.10;9.00;;;;;;;;;;5100619;28;20331;-81
2023/04/07 07:11:26;;;;;;;9.80;8.80;;;;;;;;;;5101526;28;20581;-80
2023/04/07 07:13:54;;;;;;;10.73;9.47;;;;;;;;;;5100520;28;20204;-81
2023/04/07 07:16:22;;;;;;;10.40;8.27;;;;;;;;;;5101967;28;20219;-80
2023/04/07 07:18:49;;;;;;;10.23;9.17;;;;;;;;;;5113997;28;20211;-81
2023/04/07 07:21:17;;;;;;;12.77;10.80;;;;;;;;;;5106175;28;20660;-80
2023/04/07 07:23:44;;;;;;;10.53;8.93;;;;;;;;;;5107958;28;20203;-80
2023/04/07 07:26:11;;;;;;;11.37;8.77;;;;;;;;;;5101965;28;20242;-80
2023/04/07 07:28:37;;;;;;;12.67;10.20;;;;;;;;;;5114274;28;20208;-81
2023/04/07 07:31:11;;;;;;;9.00;8.13;;;;;;;;;;5105334;28;20211;-81
2023/04/07 07:33:39;;;;;;;11.53;9.97;;;;;;;;;;5096505;28;20204;-81
2023/04/07 07:36:07;;;;;;;9.47;8.37;;;;;;;;;;5112777;28;20268;-80
2023/04/07 07:38:33;;;;;;;14.03;10.93;;;;;;;;;;5110725;28;20565;-80
2023/04/07 07:41:00;;;;;;;9.87;8.87;;;;;;;;;;5093308;28;20721;-80
2023/04/07 07:43:27;;;;;;;13.20;11.50;;;;;;;;;;5107482;28;20205;-81
2023/04/07 07:45:54;;;;;;;10.20;9.03;;;;;;;;;;5093626;28;20204;-81
2023/04/07 07:48:22;;;;;;;8.60;7.70;;;;;;;;;;5093117;28;20201;-80
2023/04/07 07:50:49;;;;;;;12.43;9.90;;;;;;;;;;5104077;28;20211;-81
2023/04/07 07:53:16;;;;;;;10.93;8.97;;;;;;;;;;5099837;28;20199;-81
2023/04/07 07:55:43;;;;;;;9.97;8.97;;;;;;;;;;5102740;28;20282;-81
2023/04/07 07:58:09;;;;;;;10.63;7.70;;;;;;;;;;5110624;28;20208;-80
2023/04/07 08:00:36;;;;;;;13.30;10.77;;;;;;;;;;5101888;28;20232;-81
2023/04/07 08:03:03;;;;;;;11.63;10.10;;;;;;;;;;5111515;28;20203;-80
2023/04/07 08:05:31;;;;;;;10.20;8.17;;;;;;;;;;5112695;28;20214;-84
2023/04/07 08:07:58;;;;;;;9.63;8.43;;;;;;;;;;5113410;28;20239;-80
2023/04/07 08:10:25;;;;;;;21.73;15.07;;;;;;;;;;5113896;28;20623;-80
2023/04/07 08:12:52;;;;;;;10.37;8.60;;;;;;;;;;5107580;28;20273;-80
2023/04/07 08:15:19;;;;;;;11.57;9.17;;;;;;;;;;5105346;28;20199;-81
2023/04/07 08:17:45;;;;;;;15.73;11.23;;;;;;;;;;5113238;28;20237;-81
2023/04/07 08:20:12;;;;;;;15.97;12.10;;;;;;;;;;5100098;28;20224;-80
2023/04/07 08:22:41;;;;;;;20.37;13.57;;;;;;;;;;5112713;28;20211;-80
2023/04/07 08:25:09;;;;;;;14.53;10.93;;;;;;;;;;5113145;28;20203;-81
2023/04/07 08:27:36;;;;;;;14.57;10.00;;;;;;;;;;5092817;28;20253;-80
2023/04/07 08:30:07;;;;;;;11.93;9.03;;;;;;;;;;5106697;28;20755;-81
2023/04/07 08:32:39;;;;;;;16.63;10.97;;;;;;;;;;5113075;28;20268;-80
2023/04/07 08:35:06;;;;;;;21.07;12.60;;;;;;;;;;5097157;28;20204;-80
2023/04/07 08:37:34;;;;;;;23.57;12.73;;;;;;;;;;5101415;28;20674;-81
2023/04/07 08:40:02;;;;;;;12.43;9.93;;;;;;;;;;5110276;28;20717;-80
2023/04/07 08:42:31;;;;;;;22.23;11.43;;;;;;;;;;5101869;28;20212;-80
2023/04/07 08:44:59;;;;;;;8.97;7.07;;;;;;;;;;5112834;28;20290;-80
2023/04/07 08:47:27;;;;;;;26.73;11.67;;;;;;;;;;5101920;28;20200;-80
2023/04/07 08:49:57;;;;;;;18.67;10.73;;;;;;;;;;5092093;28;20223;-80
2023/04/07 08:52:31;;;;;;;11.87;7.80;;;;;;;;;;5103492;28;20203;-80
2023/04/07 08:55:01;;;;;;;10.90;8.37;;;;;;;;;;5099174;28;20203;-80
2023/04/07 08:57:31;;;;;;;12.80;7.73;;;;;;;;;;5099377;28;20211;-80
2023/04/07 09:00:04;;;;;;;12.53;8.40;;;;;;;;;;5099081;28;20233;-80
2023/04/07 09:02:32;;;;;;;8.57;7.27;;;;;;;;;;5112285;28;20277;-81
2023/04/07 09:04:59;;;;;;;13.83;8.63;;;;;;;;;;5111956;28;20739;-80
2023/04/07 09:07:26;;;;;;;8.77;7.03;;;;;;;;;;5098564;28;20368;-80
2023/04/07 09:09:52;;;;;;;7.93;7.03;;;;;;;;;;5112207;28;20231;-80
2023/04/07 09:12:19;;;;;;;8.17;6.90;;;;;;;;;;5098553;28;20269;-80
2023/04/07 09:14:47;;;;;;;16.10;9.60;;;;;;;;;;5111776;28;20260;-80
2023/04/07 09:17:14;;;;;;;12.87;11.13;;;;;;;;;;5111620;28;20211;-80
2023/04/07 09:19:41;;;;;;;24.47;12.73;;;;;;;;;;5112266;28;20199;-80
2023/04/07 09:22:11;;;;;;;10.23;7.77;;;;;;;;;;5096515;28;20228;-80
2023/04/07 09:24:38;;;;;;;12.97;10.23;;;;;;;;;;5091333;28;20567;-80
2023/04/07 09:27:15;;;;;;;9.63;7.83;;;;;;;;;;5104962;28;20678;-81
2023/04/07 09:29:44;;;;;;;10.87;9.07;;;;;;;;;;5102274;28;20205;-80
2023/04/07 09:32:13;;;;;;;12.00;10.70;;;;;;;;;;5097783;28;20724;-80
2023/04/07 09:34:40;;;;;;;9.80;8.77;;;;;;;;;;5100675;28;20203;-80
2023/04/07 09:37:08;;;;;;;9.07;7.83;;;;;;;;;;5109430;28;20203;-80
2023/04/07 09:39:48;;;;;;;9.53;8.43;;;;;;;;;;5099762;28;20204;-81
2023/04/07 09:42:16;;;;;;;10.37;9.33;;;;;;;;;;5098301;28;20234;-81
2023/04/07 09:44:44;;;;;;;7.50;6.73;;;;;;;;;;5097756;28;20261;-81
2023/04/07 09:47:16;;;;;;;8.53;7.20;;;;;;;;;;5104235;28;20207;-80
2023/04/07 09:49:52;;;;;;;13.00;8.20;;;;;;;;;;5106459;28;20195;-80
2023/04/07 09:52:22;;;;;;;9.03;7.03;;;;;;;;;;5101682;28;20207;-80
2023/04/07 09:54:49;;;;;;;10.97;8.07;;;;;;;;;;5107902;28;20602;-80
2023/04/07 09:57:18;;;;;;;8.50;7.37;;;;;;;;;;5111915;28;20737;-81
2023/04/07 09:59:45;;;;;;;6.97;6.37;;;;;;;;;;5115090;28;20199;-81
2023/04/07 10:02:12;;;;;;;13.07;7.73;;;;;;;;;;5115581;28;20802;-80
2023/04/07 10:04:41;;;;;;;8.60;7.70;;;;;;;;;;5111242;28;20196;-80
2023/04/07 10:07:08;;;;;;;8.67;7.50;;;;;;;;;;5095719;28;20200;-81
2023/04/07 10:09:35;;;;;;;7.57;6.97;;;;;;;;;;5100206;28;20251;-81
2023/04/07 10:12:01;;;;;;;9.77;8.87;;;;;;;;;;5103770;28;20203;-85
2023/04/07 10:14:31;;;;;;;9.70;8.57;;;;;;;;;;5100521;28;20248;-80
2023/04/07 10:16:58;;;;;;;9.80;8.43;;;;;;;;;;5103101;28;20666;-80
2023/04/07 10:19:25;;;;;;;11.07;10.10;;;;;;;;;;5100870;28;20208;-81
2023/04/07 10:21:54;;;;;;;9.23;8.33;;;;;;;;;;5101801;28;20235;-81
2023/04/07 10:24:32;;;;;;;6.33;5.73;;;;;;;;;;5115379;28;20222;-81
2023/04/07 10:27:02;;;;;;;12.40;9.27;;;;;;;;;;5101724;28;20196;-80
2023/04/07 10:29:30;;;;;;;8.33;7.57;;;;;;;;;;5106348;28;20203;-81
2023/04/07 10:31:56;;;;;;;10.43;7.80;;;;;;;;;;5111293;28;20210;-80
2023/04/07 10:34:57;;;;;;;10.80;7.73;;;;;;;;;;5106062;28;20208;-80
2023/04/07 10:37:26;;;;;;;9.10;8.27;;;;;;;;;;5094555;28;20283;-80
2023/04/07 10:40:26;;;;;;;8.97;7.73;;;;;;;;;;5095167;28;20205;-80
2023/04/07 10:42:53;;;;;;;9.77;8.77;;;;;;;;;;5114657;28;20230;-80
2023/04/07 10:45:53;;;;;;;7.70;6.87;;;;;;;;;;5114664;28;20725;-80
2023/04/07 10:48:20;;;;;;;11.70;9.40;;;;;;;;;;5097791;28;20231;-80
2023/04/07 10:51:17;;;;;;;8.20;6.90;;;;;;;;;;5105510;28;20590;-80
2023/04/07 10:54:19;;;;;;;8.20;7.37;;;;;;;;;;5094210;28;20262;-80
2023/04/07 10:57:10;;;;;;;8.43;7.60;;;;;;;;;;5018546;28;20195;-80
2023/04/07 10:59:38;;;;;;;6.83;6.23;;;;;;;;;;5105419;28;20706;-80
2023/04/07 11:02:33;;;;;;;7.70;6.77;;;;;;;;;;5104608;28;20219;-80
2023/04/07 11:05:00;;;;;;;9.83;8.83;;;;;;;;;;5094508;28;20243;-80
2023/04/07 11:07:56;;;;;;;9.67;7.90;;;;;;;;;;5094226;28;20749;-80
2023/04/07 11:10:25;;;;;;;9.37;8.20;;;;;;;;;;5093845;28;20224;-80
2023/04/07 11:13:02;;;;;;;9.40;7.93;;;;;;;;;;5099863;28;20211;-80
2023/04/07 11:15:29;;;;;;;54.13;33.63;;;;;;;;;;5114282;28;20665;-80
2023/04/07 11:18:16;;;;;;;17.20;11.90;;;;;;;;;;5114405;28;20199;-80
2023/04/07 11:20:45;;;;;;;18.17;15.77;;;;;;;;;;5114090;28;20239;-80
2023/04/07 11:23:12;;;;;;;13.80;11.53;;;;;;;;;;5114659;28;20207;-80
2023/04/07 11:25:43;;;;;;;14.60;10.73;;;;;;;;;;5113962;28;20677;-80
2023/04/07 11:28:10;;;;;;;13.17;11.97;;;;;;;;;;5102352;28;20208;-80
2023/04/07 11:30:37;;;;;;;13.77;8.03;;;;;;;;;;5113156;28;20294;-81
2023/04/07 11:33:04;;;;;;;9.50;8.60;;;;;;;;;;5113864;28;20207;-80
2023/04/07 11:35:33;;;;;;;9.20;8.20;;;;;;;;;;5094455;28;20683;-80
2023/04/07 11:38:01;;;;;;;8.90;8.10;;;;;;;;;;5106855;28;20227;-80
2023/04/07 11:40:35;;;;;;;9.47;7.20;;;;;;;;;;5113875;28;20621;-80
2023/04/07 11:43:16;;;;;;;13.33;8.03;;;;;;;;;;5113516;28;20629;-80
2023/04/07 11:45:44;;;;;;;8.13;7.20;;;;;;;;;;5113985;28;20203;-80
2023/04/07 11:48:26;;;;;;;8.47;7.47;;;;;;;;;;5113750;28;20196;-80
2023/04/07 11:50:53;;;;;;;7.13;6.43;;;;;;;;;;5110399;28;20203;-80
2023/04/07 11:53:26;;;;;;;9.43;8.20;;;;;;;;;;5113688;28;20211;-80
2023/04/07 11:56:00;;;;;;;9.30;7.43;;;;;;;;;;5113228;28;20294;-80
2023/04/07 11:58:28;;;;;;;7.87;7.13;;;;;;;;;;5101631;28;20195;-80
2023/04/07 12:00:56;;;;;;;8.37;7.57;;;;;;;;;;5099470;28;20230;-80
2023/04/07 12:03:23;;;;;;;9.20;7.60;;;;;;;;;;5113571;28;20235;-80
2023/04/07 12:05:49;;;;;;;8.10;6.80;;;;;;;;;;5111261;28;20207;-79
2023/04/07 12:08:17;;;;;;;8.00;6.97;;;;;;;;;;5101845;28;20200;-81
2023/04/07 12:10:45;;;;;;;7.53;6.47;;;;;;;;;;5099594;28;20204;-80
2023/04/07 12:13:13;;;;;;;6.90;6.07;;;;;;;;;;5113087;28;20233;-80
2023/04/07 12:15:42;;;;;;;7.90;7.20;;;;;;;;;;5113403;28;20203;-80
2023/04/07 12:18:09;;;;;;;9.63;7.03;;;;;;;;;;5113433;28;20191;-80
2023/04/07 12:20:35;;;;;;;8.13;6.50;;;;;;;;;;5095668;28;20200;-79
2023/04/07 12:23:02;;;;;;;25.43;16.07;;;;;;;;;;5102341;28;20231;-80
2023/04/07 12:25:29;;;;;;;16.27;13.27;;;;;;;;;;5099635;28;20202;-80
2023/04/07 12:27:56;;;;;;;15.93;12.47;;;;;;;;;;5102433;28;20279;-80
2023/04/07 12:30:24;;;;;;;28.27;15.37;;;;;;;;;;5109155;28;20637;-80
2023/04/07 12:32:53;;;;;;;11.83;10.53;;;;;;;;;;5102372;28;20671;-80
2023/04/07 12:35:20;;;;;;;21.23;15.13;;;;;;;;;;5106065;28;20204;-80
2023/04/07 12:37:46;;;;;;;12.80;10.53;;;;;;;;;;5103808;28;20206;-80
2023/04/07 12:40:14;;;;;;;12.77;11.23;;;;;;;;;;5112513;28;20207;-81
2023/04/07 12:42:41;;;;;;;7.30;6.50;;;;;;;;;;5112845;28;20219;-80
2023/04/07 12:45:09;;;;;;;8.10;7.23;;;;;;;;;;5112677;28;20199;-80
2023/04/07 12:47:36;;;;;;;16.37;11.03;;;;;;;;;;5099914;28;20265;-80
2023/04/07 12:50:04;;;;;;;13.97;11.37;;;;;;;;;;5111907;28;20211;-80
2023/04/07 12:52:31;;;;;;;8.97;8.07;;;;;;;;;;5112184;28;20205;-80
2023/04/07 12:54:59;;;;;;;8.67;7.27;;;;;;;;;;5112326;28;20254;-80
2023/04/07 12:57:26;;;;;;;11.57;8.27;;;;;;;;;;5112125;28;20273;-80
2023/04/07 12:59:53;;;;;;;29.67;17.60;;;;;;;;;;5112605;28;20203;-80
2023/04/07 13:02:20;;;;;;;28.07;25.03;;;;;;;;;;5111841;28;20713;-81
2023/04/07 13:04:46;;;;;;;8.50;7.53;;;;;;;;;;5112331;28;20207;-80
2023/04/07 13:07:14;;;;;;;10.10;7.03;;;;;;;;;;5111134;28;20581;-80
2023/04/07 13:09:43;;;;;;;6.70;6.00;;;;;;;;;;5100020;28;20235;-80
2023/04/07 13:12:11;;;;;;;10.47;6.67;;;;;;;;;;5110324;28;20203;-80
2023/04/07 13:14:38;;;;;;;8.27;6.20;;;;;;;;;;5105279;28;20261;-80
2023/04/07 13:17:05;;;;;;;6.30;5.80;;;;;;;;;;5105406;28;20264;-81
2023/04/07 13:19:32;;;;;;;7.60;6.83;;;;;;;;;;5091673;28;20204;-80
2023/04/07 13:22:00;;;;;;;8.43;6.90;;;;;;;;;;5104908;28;20215;-81
2023/04/07 13:24:28;;;;;;;13.13;9.67;;;;;;;;;;5091625;28;20208;-80
2023/04/07 13:26:56;;;;;;;19.60;12.90;;;;;;;;;;5105205;28;20202;-80
2023/04/07 13:29:23;;;;;;;16.63;11.97;;;;;;;;;;5099677;28;20211;-80
2023/04/07 13:31:50;;;;;;;11.73;8.57;;;;;;;;;;5098350;28;20269;-80
2023/04/07 13:34:17;;;;;;;13.30;8.63;;;;;;;;;;5103064;28;20656;-80
2023/04/07 13:36:45;;;;;;;7.97;7.17;;;;;;;;;;5091335;28;20659;-80
2023/04/07 13:39:12;;;;;;;15.27;12.17;;;;;;;;;;5100458;28;20203;-82
2023/04/07 13:41:40;;;;;;;6.97;6.00;;;;;;;;;;5097465;28;20702;-80
2023/04/07 13:44:07;;;;;;;10.83;6.47;;;;;;;;;;5111494;28;20665;-81
2023/04/07 13:46:34;;;;;;;22.30;11.27;;;;;;;;;;5109235;28;20212;-80
2023/04/07 13:49:01;;;;;;;15.97;8.57;;;;;;;;;;5091589;28;20215;-80
2023/04/07 13:51:28;;;;;;;9.07;7.80;;;;;;;;;;5091173;28;20219;-80
2023/04/07 13:53:54;;;;;;;7.10;6.40;;;;;;;;;;5091384;28;20193;-80
2023/04/07 13:56:22;;;;;;;7.00;6.30;;;;;;;;;;5094626;28;20248;-80
2023/04/07 13:58:50;;;;;;;9.07;7.60;;;;;;;;;;5111545;28;20199;-80
2023/04/07 14:01:17;;;;;;;7.43;6.73;;;;;;;;;;5093518;28;20200;-80
2023/04/07 14:03:44;;;;;;;9.03;7.37;;;;;;;;;;5090926;28;20714;-80
2023/04/07 14:06:10;;;;;;;15.83;12.93;;;;;;;;;;5090994;28;20212;-80
2023/04/07 14:08:37;;;;;;;9.57;8.57;;;;;;;;;;5102263;28;20242;-80
2023/04/07 14:11:04;;;;;;;6.67;6.07;;;;;;;;;;5107141;28;20682;-80
2023/04/07 14:13:31;;;;;;;9.20;6.63;;;;;;;;;;5102129;28;20204;-80
2023/04/07 14:15:59;;;;;;;8.43;7.63;;;;;;;;;;5110604;28;20207;-80
2023/04/07 14:18:26;;;;;;;9.03;5.97;;;;;;;;;;5111188;28;20211;-80
2023/04/07 14:20:53;;;;;;;9.07;7.30;;;;;;;;;;5111402;28;20203;-80
2023/04/07 14:23:20;;;;;;;11.47;8.80;;;;;;;;;;5100113;28;20228;-80
2023/04/07 14:25:47;;;;;;;8.07;6.77;;;;;;;;;;5104333;28;20663;-80
2023/04/07 14:28:13;;;;;;;7.37;6.67;;;;;;;;;;5103101;28;20203;-80
2023/04/07 14:30:40;;;;;;;10.97;7.53;;;;;;;;;;5097560;28;20210;-81
2023/04/07 14:33:08;;;;;;;9.63;8.67;;;;;;;;;;5098739;28;20211;-80
2023/04/07 14:35:37;;;;;;;9.33;8.30;;;;;;;;;;5104633;28;20698;-80
2023/04/07 14:38:03;;;;;;;10.17;8.97;;;;;;;;;;5103840;28;20583;-81
2023/04/07 14:40:30;;;;;;;9.03;8.13;;;;;;;;;;5110727;28;20199;-80